Koosharem, Utah
Current Conditions -  °F | °C
As of 9:53 PM on Friday 28 Nov 2014 (Local Time) from KBCE Reporting Station
Clear Clear  
Wind Chill: 16°   Ceiling: Unl
Heat Index: 22°   Visibility: 10mi
Dew Point:   Wind: 5mph
Humidity: 58%   Direction: 260°W
Pressure: 30.08"   Gusts: NA
Location:  38.51°N, 111.88°W
Report Text: KBCE 290453Z AUTO 26004KT 10SM CLR M06/M13 A3008 RMK AO2 SLP150 T10561128
Loading
Personal Weather Stations






























Interactive Weather Map New forecast layout! Learn more

10-Day Weather Forecast

Advertisements
Track Severe Weather on mobile